• Join FlightAware (Why Join?)
  • Login
  • US Flag 
03:06PM EDT


 

Airport Tracker/Info


-or-


 

Live Flight TrackerFlight Track Log ✈ ASQ6041 ✈ 07-Sep-2013 ✈ KDEN - KLNK

Flight Track Log - Related Links

Times and Time Zones

All times are in EDT time to prevent confusion due to time zone crossing. See the ASQ6041 flight status page for this flight to view local times or setup timezone preferences in your user account.

Time Position Orientation Groundspeed Altitude Reporting Facility
EDT Latitude Longitude Course Direction KTS MPH feet Rate Location/Type
12:54PM 39.8833 -104.6000 85° East 179 206 6,400  Level Denver TRACON
12:55PM 39.8833 -104.5333 90° East 237 273 7,800 1,500 Climbing Denver TRACON
12:56PM 39.8667 -104.4167 101° East 281 323 9,600 1,560 Climbing Denver TRACON
12:57PM 39.9252 -104.2747 90° East  Level Estimated
12:57PM 39.8667 -104.3000 90° East 300 345 11,200  Level Denver TRACON
12:58PM 39.9461 -104.1416 90° East  Level Estimated
12:59PM 39.9668 -104.0086 72° East  Level Estimated
12:59PM 39.8728 -104.1464 87° East 328 377 13,400  Level Denver Center
01:00PM 39.9871 -103.8770 85° East  Level Estimated
01:00PM 39.8714 -104.0067 91° East 359 413 14,800  Level Denver Center
01:01PM 39.8725 -103.8719 89° East 376 433 16,200 1,380 Climbing Denver Center
01:02PM 39.8822 -103.7339 85° East 379 436 17,700 1,500 Climbing Denver Center
01:03PM 39.9003 -103.5867 81° East 368 423 19,400 1,740 Climbing Denver Center
01:04PM 39.9158 -103.4503 81° East 379 436 21,300 1,620 Climbing Denver Center
01:05PM 39.9303 -103.3178 82° East 374 430 22,800 1,500 Climbing Denver Center
01:06PM 39.9453 -103.1794 82° East 384 442 24,400 1,500 Climbing Denver Center
01:07PM 39.9603 -103.0436 82° East 382 440 26,000 1,620 Climbing Denver Center
01:08PM 39.9758 -102.9097 81° East 376 433 27,800 1,980 Climbing Denver Center
01:09PM 39.9931 -102.7500 82° East 372 428 30,100 1,980 Climbing Denver Center
01:10PM 40.0047 -102.6250 83° East 360 414 31,900 1,500 Climbing Denver Center
01:11PM 40.0183 -102.5031 82° East 356 410 33,300 1,440 Climbing Denver Center
01:12PM 40.0333 -102.3619 82° East 353 406 34,900 780 Climbing Denver Center
01:13PM 40.0467 -102.2378 82° East 360 414 35,000  Climbing Denver Center
01:14PM 40.0631 -102.0769 82° East 400 460 35,000  Level Denver Center
01:15PM 40.0781 -101.9264 83° East 433 498 35,000  Level Denver Center
01:16PM 40.0961 -101.7458 82° East 449 517 35,000  Level Denver Center
01:17PM 40.1117 -101.5881 83° East 458 527 35,000  Level Denver Center
01:18PM 40.1275 -101.4061 83° East 454 522 35,000  Level Denver Center
01:19PM 40.1431 -101.2511 82° East 452 520 35,000  Level Denver Center
01:20PM 40.1592 -101.0722 83° East 448 516 35,000  Level Denver Center
01:21PM 40.1742 -100.9183 83° East 448 516 35,000  Level Denver Center
01:23PM 40.1903 -100.7411 83° East 444 511 35,000  Level Denver Center
01:24PM 40.2042 -100.5881 83° East 446 513 35,000  Level Denver Center
01:25PM 40.2397 -100.4142 75° East 444 511 35,000  Level Denver Center
01:26PM 40.2700 -100.2642 75° East 447 514 35,000  Level Denver Center
01:27PM 40.3047 -100.0922 75° East 442 509 35,000  Level Denver Center
01:28PM 40.3347 -99.9428 75° East 444 511 35,000  Level Denver Center
01:29PM 40.3664 -99.7881 75° East 441 507 35,000 -540 Level Denver Center
01:30PM 40.3961 -99.6356 76° East 439 505 34,000 -1,020 Descending Minneapolis Center
01:31PM 40.4253 -99.4869 75° East 427 491 33,100 -540 Descending Minneapolis Center
01:32PM 40.4556 -99.3317 76° East 434 499 33,000 -60 Descending Minneapolis Center
01:33PM 40.4861 -99.1711 76° East 447 514 33,000  Level Minneapolis Center
01:34PM 40.5108 -99.0400 76° East 457 526 33,000 -780 Level Minneapolis Center
01:35PM 40.5469 -98.8469 76° East 458 527 31,500 -2,220 Descending Minneapolis Center
01:36PM 40.5831 -98.6586 76° East 449 517 28,500 -2,640 Descending Minneapolis Center
01:37PM 40.6131 -98.4967 76° East 455 524 26,100 -2,640 Descending Minneapolis Center
01:38PM 40.6436 -98.3294 76° East 466 536 23,100 -2,760 Descending Minneapolis Center
01:39PM 40.6728 -98.1728 76° East 453 521 20,500 -2,220 Descending Minneapolis Center
01:40PM 40.6978 -98.0356 76° East 406 467 18,600 -1,980 Descending Minneapolis Center
01:41PM 40.7164 -97.9317 77° East 379 436 16,500 -2,880 Descending Minneapolis Center
01:42PM 40.7475 -97.7536 77° East 361 415 12,700 -2,640 Descending Minneapolis Center
01:43PM 40.7706 -97.6269 76° East 357 411 11,000 -1,260 Descending Minneapolis Center
01:43PM 40.7567 -97.5761 110° East 362 417 11,000  Level Minneapolis Center
01:44PM 40.7889 -97.5183 54° Northeast 369 425 11,000  Level Minneapolis Center
01:44PM 40.7842 -97.4225 94° East 369 425 11,000 -720 Level Minneapolis Center
01:45PM 40.8036 -97.3639 66° East 328 377 10,300 -1,380 Descending Minneapolis Center
01:45PM 40.7803 -97.3128 121° Southeast 298 343 9,600 -1,860 Descending Minneapolis Center
01:46PM 40.7767 -97.2472 94° East 292 336 8,500 -1,740 Descending Minneapolis Center
01:46PM 40.7942 -97.2528 346° North 308 354 8,500 -1,740 Level Minneapolis Center
01:47PM 40.7839 -97.1450 97° East 300 345 6,700 -1,920 Descending Minneapolis Center
01:47PM 40.7647 -97.1056 123° Southeast 293 337 6,100 -1,860 Descending Minneapolis Center
01:48PM 40.7725 -97.0403 81° East 292 336 4,800 -1,860 Descending Minneapolis Center
01:48PM 40.7572 -97.0072 121° Southeast 290 334 4,400 -1,680 Descending Minneapolis Center
01:49PM 40.7469 -96.9011 97° East 282 325 2,900 -840 Descending Minneapolis Center
01:50PM 40.7403 -96.8247 97° East 210 242 2,800 -120 Descending Minneapolis Center
01:50PM 40.7533 -96.8314 339° North 239 275 2,800 -120 Level Minneapolis Center
01:51PM 40.7575 -96.7625 85° East 190 219 2,700 -240 Descending Minneapolis Center
01:51PM 40.7692 -96.7664 346° North 204 235 2,600 -780 Descending Minneapolis Center
01:52PM 40.8183 -96.7597 North 186 214 1,900 -720 Descending Minneapolis Center